createdAt,value
2023-01-05T00:01:50.759Z,-3.38
2023-01-05T00:04:22.578Z,-3.44
2023-01-05T00:06:50.716Z,-3.28
2023-01-05T00:09:19.652Z,-3.45
2023-01-05T00:12:09.428Z,-3.59
2023-01-05T00:14:56.133Z,-3.80
2023-01-05T00:17:44.141Z,-3.72
2023-01-05T00:20:40.069Z,-3.87
2023-01-05T00:23:09.314Z,-3.96
2023-01-05T00:25:40.559Z,-4.06
2023-01-05T00:28:08.784Z,-3.95
2023-01-05T00:30:44.455Z,-3.96
2023-01-05T00:33:17.720Z,-3.79
2023-01-05T00:35:46.200Z,-3.88
2023-01-05T00:38:13.961Z,-3.59
2023-01-05T00:40:41.807Z,-3.86
2023-01-05T00:43:10.100Z,-3.48
2023-01-05T00:45:38.166Z,-3.62
2023-01-05T00:48:06.347Z,-3.69
2023-01-05T00:50:34.799Z,-3.49
2023-01-05T00:53:05.224Z,-3.56
2023-01-05T00:55:33.278Z,-3.59
2023-01-05T00:58:06.927Z,-3.74
2023-01-05T01:00:34.872Z,-3.59
2023-01-05T01:03:03.199Z,-3.47
2023-01-05T01:05:31.124Z,-3.39
2023-01-05T01:07:59.004Z,-3.54
2023-01-05T01:10:27.252Z,-3.50
2023-01-05T01:12:55.147Z,-3.51
2023-01-05T01:15:24.678Z,-3.25
2023-01-05T01:17:52.879Z,-3.42
2023-01-05T01:20:23.620Z,-3.35
2023-01-05T01:22:51.468Z,-3.41
2023-01-05T01:25:20.785Z,-3.28
2023-01-05T01:27:48.642Z,-3.27
2023-01-05T01:30:17.959Z,-3.28
2023-01-05T01:32:46.194Z,-3.25
2023-01-05T01:35:14.365Z,-3.25
2023-01-05T01:37:43.008Z,-3.38
2023-01-05T01:40:11.766Z,-3.62
2023-01-05T01:42:40.206Z,-3.78
2023-01-05T01:45:25.552Z,-3.91
2023-01-05T01:48:01.068Z,-3.93
2023-01-05T01:50:53.115Z,-3.85
2023-01-05T01:53:27.546Z,-3.86
2023-01-05T01:55:58.499Z,-3.57
2023-01-05T01:58:29.912Z,-3.63
2023-01-05T02:01:01.336Z,-3.50
2023-01-05T02:03:31.870Z,-3.54
2023-01-05T02:06:00.405Z,-3.40
2023-01-05T02:08:37.152Z,-3.38
2023-01-05T02:11:30.061Z,-3.59
2023-01-05T02:14:26.666Z,-3.63
2023-01-05T02:17:09.642Z,-3.46
2023-01-05T02:20:01.037Z,-3.58
2023-01-05T02:22:39.771Z,-3.45
2023-01-05T02:25:27.089Z,-3.34
2023-01-05T02:28:33.364Z,-3.18
2023-01-05T02:31:19.372Z,-3.19
2023-01-05T02:34:46.173Z,-3.32
2023-01-05T02:37:28.509Z,-3.24
2023-01-05T02:40:08.993Z,-3.53
2023-01-05T02:42:42.921Z,-3.56
2023-01-05T02:45:11.365Z,-3.55
2023-01-05T02:47:43.038Z,-3.56
2023-01-05T02:50:32.278Z,-3.37
2023-01-05T02:53:15.897Z,-3.03
2023-01-05T02:55:52.193Z,-3.42
2023-01-05T02:58:46.570Z,-3.38
2023-01-05T03:01:28.898Z,-3.43
2023-01-05T03:04:07.571Z,-3.35
2023-01-05T03:06:47.382Z,-3.78
2023-01-05T03:09:26.666Z,-3.57
2023-01-05T03:12:20.186Z,-3.87
2023-01-05T03:14:58.163Z,-3.57
2023-01-05T03:17:45.014Z,-3.94
2023-01-05T03:20:16.504Z,-4.00
2023-01-05T03:23:05.102Z,-4.02
2023-01-05T03:25:57.370Z,-4.09
2023-01-05T03:28:49.619Z,-4.00
2023-01-05T03:32:10.523Z,-4.09
2023-01-05T03:35:33.077Z,-4.23
2023-01-05T03:38:18.574Z,-4.44
2023-01-05T03:40:56.544Z,-4.48
2023-01-05T03:43:26.390Z,-4.62
2023-01-05T03:45:56.933Z,-4.43
2023-01-05T03:48:27.632Z,-4.66
2023-01-05T03:50:55.952Z,-4.33
2023-01-05T03:53:27.725Z,-4.52
2023-01-05T03:55:59.111Z,-4.50
2023-01-05T03:58:30.081Z,-4.38
2023-01-05T04:00:58.331Z,-4.54
2023-01-05T04:03:31.674Z,-4.75
2023-01-05T04:06:00.913Z,-5.04
2023-01-05T04:08:29.509Z,-4.99
2023-01-05T04:11:10.675Z,-5.07
2023-01-05T04:13:39.330Z,-5.17
2023-01-05T04:16:08.095Z,-5.33
2023-01-05T04:18:37.061Z,-5.41
2023-01-05T04:21:06.423Z,-5.43
2023-01-05T04:23:34.516Z,-5.26
2023-01-05T04:26:04.018Z,-5.31
2023-01-05T04:28:34.515Z,-5.29
2023-01-05T04:31:02.313Z,-5.32
2023-01-05T04:33:31.256Z,-5.23
2023-01-05T04:36:02.535Z,-5.17
2023-01-05T04:38:31.339Z,-5.00
2023-01-05T04:41:00.173Z,-4.96
2023-01-05T04:43:32.126Z,-5.01
2023-01-05T04:46:03.063Z,-4.76
2023-01-05T04:48:32.174Z,-4.52
2023-01-05T04:51:00.715Z,-4.40
2023-01-05T04:53:33.857Z,-4.38
2023-01-05T04:56:02.403Z,-4.40
2023-01-05T04:58:34.613Z,-4.44
2023-01-05T05:01:03.163Z,-4.43
2023-01-05T05:03:33.303Z,-4.59
2023-01-05T05:06:01.918Z,-4.49
2023-01-05T05:08:30.640Z,-4.52
2023-01-05T05:11:00.206Z,-4.58
2023-01-05T05:13:29.351Z,-4.71
2023-01-05T05:15:58.476Z,-4.60
2023-01-05T05:18:29.080Z,-4.62
2023-01-05T05:20:57.362Z,-4.77
2023-01-05T05:23:25.388Z,-4.69
2023-01-05T05:25:53.996Z,-4.58
2023-01-05T05:28:23.478Z,-4.64
2023-01-05T05:30:51.403Z,-4.66
2023-01-05T05:33:19.259Z,-4.63
2023-01-05T05:35:47.543Z,-4.68
2023-01-05T05:38:15.610Z,-4.64
2023-01-05T05:40:49.482Z,-4.63
2023-01-05T05:43:17.743Z,-4.71
2023-01-05T05:45:50.304Z,-4.58
2023-01-05T05:48:19.851Z,-4.55
2023-01-05T05:50:47.746Z,-4.63
2023-01-05T05:53:18.556Z,-4.66
2023-01-05T05:55:53.127Z,-4.68
2023-01-05T05:58:21.002Z,-4.68
2023-01-05T06:00:49.260Z,-4.67
2023-01-05T06:03:17.463Z,-4.71
2023-01-05T06:05:45.559Z,-4.80
2023-01-05T06:08:13.501Z,-4.70
2023-01-05T06:10:41.890Z,-4.80
2023-01-05T06:13:12.841Z,-4.77
2023-01-05T06:15:41.167Z,-4.73
2023-01-05T06:18:09.149Z,-4.69
2023-01-05T06:20:37.561Z,-4.79
2023-01-05T06:23:06.331Z,-4.68
2023-01-05T06:25:34.565Z,-4.56
2023-01-05T06:28:05.536Z,-4.58
2023-01-05T06:30:33.752Z,-4.47
2023-01-05T06:33:04.853Z,-4.38
2023-01-05T06:35:33.125Z,-4.28
2023-01-05T06:38:01.017Z,-4.23
2023-01-05T06:40:29.017Z,-4.24
2023-01-05T06:42:57.303Z,-4.22
2023-01-05T06:45:25.356Z,-4.15
2023-01-05T06:47:53.268Z,-4.15
2023-01-05T06:50:21.578Z,-4.17
2023-01-05T06:52:49.462Z,-4.14
2023-01-05T06:55:17.621Z,-4.17
2023-01-05T06:57:46.183Z,-4.18
2023-01-05T07:00:15.198Z,-4.19
2023-01-05T07:02:46.202Z,-4.17
2023-01-05T07:05:14.427Z,-4.14
2023-01-05T07:07:42.392Z,-4.09
2023-01-05T07:10:10.639Z,-4.09
2023-01-05T07:12:40.311Z,-4.04
2023-01-05T07:15:09.133Z,-4.04
2023-01-05T07:17:37.881Z,-3.92
2023-01-05T07:20:08.564Z,-3.91
2023-01-05T07:22:36.660Z,-3.89
2023-01-05T07:25:05.229Z,-3.92
2023-01-05T07:27:34.160Z,-3.89
2023-01-05T07:30:01.971Z,-3.98
2023-01-05T07:32:31.853Z,-3.90
2023-01-05T07:35:03.377Z,-3.95
2023-01-05T07:37:31.467Z,-3.91
2023-01-05T07:40:00.125Z,-3.90
2023-01-05T07:42:30.938Z,-3.86
2023-01-05T07:45:02.218Z,-3.87
2023-01-05T07:47:31.735Z,-3.88
2023-01-05T07:50:00.169Z,-3.86
2023-01-05T07:52:31.681Z,-3.86
2023-01-05T07:55:01.285Z,-3.79
2023-01-05T07:57:31.537Z,-3.85
2023-01-05T08:00:00.505Z,-3.86
2023-01-05T08:02:35.472Z,-3.81
2023-01-05T08:05:04.696Z,-3.86
2023-01-05T08:07:32.934Z,-4.10
2023-01-05T08:10:19.482Z,-3.86
2023-01-05T08:13:06.652Z,-3.82
2023-01-05T08:15:35.706Z,-3.72
2023-01-05T08:18:04.096Z,-3.78
2023-01-05T08:20:33.146Z,-3.79
2023-01-05T08:23:02.306Z,-3.69
2023-01-05T08:25:31.855Z,-3.78
2023-01-05T08:28:03.528Z,-3.98
2023-01-05T08:30:32.962Z,-3.91
2023-01-05T08:33:02.468Z,-3.84
2023-01-05T08:35:30.891Z,-3.80
2023-01-05T08:37:59.864Z,-3.55
2023-01-05T08:40:28.255Z,-3.59
2023-01-05T08:43:00.361Z,-3.83
2023-01-05T08:45:31.856Z,-3.73
2023-01-05T08:48:03.804Z,-3.82
2023-01-05T08:50:32.881Z,-3.79
2023-01-05T08:53:02.638Z,-3.69
2023-01-05T08:55:34.807Z,-3.69
2023-01-05T08:58:23.822Z,-3.69
2023-01-05T09:00:54.600Z,-4.08
2023-01-05T09:06:14.978Z,-4.34
2023-01-05T09:11:35.697Z,-4.17
2023-01-05T09:14:06.023Z,-3.93
2023-01-05T09:17:05.849Z,-3.88
2023-01-05T09:19:25.660Z,-3.79
2023-01-05T09:21:55.413Z,-3.67
2023-01-05T09:24:23.894Z,-3.57
2023-01-05T09:26:54.823Z,-3.46
2023-01-05T09:29:24.043Z,-3.40
2023-01-05T09:31:57.546Z,-3.05
2023-01-05T09:34:26.987Z,-3.31
2023-01-05T09:36:57.009Z,-3.42
2023-01-05T09:39:26.162Z,-3.51
2023-01-05T09:41:59.350Z,-3.59
2023-01-05T09:44:39.498Z,-3.62
2023-01-05T09:47:26.144Z,-3.60
2023-01-05T09:49:58.745Z,-3.77
2023-01-05T09:52:36.004Z,-3.80
2023-01-05T09:55:20.472Z,-3.85
2023-01-05T09:58:14.934Z,-4.01
2023-01-05T10:01:14.590Z,-4.23
2023-01-05T10:04:30.273Z,-3.87
2023-01-05T10:07:10.256Z,-3.60
2023-01-05T10:09:41.763Z,-3.37
2023-01-05T10:12:28.965Z,-3.33
2023-01-05T10:15:07.588Z,-3.14
2023-01-05T10:17:42.316Z,-2.11
2023-01-05T10:20:18.394Z,-2.00
2023-01-05T10:23:19.911Z,-2.50
2023-01-05T10:25:59.976Z,-2.92
2023-01-05T10:29:04.780Z,-3.14
2023-01-05T10:32:00.591Z,-2.85
2023-01-05T10:34:47.731Z,-3.09
2023-01-05T10:37:37.369Z,-2.93
2023-01-05T10:40:21.896Z,-3.30
2023-01-05T10:43:28.888Z,-3.17
2023-01-05T10:46:29.921Z,-3.20
2023-01-05T10:48:52.237Z,-2.96
2023-01-05T10:51:27.399Z,-2.87
2023-01-05T10:53:56.726Z,-2.81
2023-01-05T10:56:29.768Z,-2.54
2023-01-05T10:59:12.780Z,-3.17
2023-01-05T11:01:48.364Z,-3.25
2023-01-05T11:04:33.713Z,-3.57
2023-01-05T11:07:12.920Z,-3.49
2023-01-05T11:09:53.025Z,-3.57
2023-01-05T11:12:27.958Z,-3.34
2023-01-05T11:15:02.677Z,-3.12
2023-01-05T11:17:35.517Z,-3.41
2023-01-05T11:20:08.130Z,-3.59
2023-01-05T11:22:42.052Z,-4.00
2023-01-05T11:25:33.456Z,-4.34
2023-01-05T11:28:18.143Z,-4.45
2023-01-05T11:31:05.066Z,-4.30
2023-01-05T11:33:41.148Z,-4.23
2023-01-05T11:36:16.991Z,-4.23
2023-01-05T11:38:45.690Z,-4.66
2023-01-05T11:41:15.769Z,-5.08
2023-01-05T11:43:48.518Z,-5.04
2023-01-05T11:46:24.577Z,-5.42
2023-01-05T11:48:57.918Z,-5.25
2023-01-05T11:51:42.194Z,-4.60
2023-01-05T11:54:49.308Z,-4.23
2023-01-05T11:57:20.217Z,-5.74
2023-01-05T11:59:54.957Z,-5.90
2023-01-05T12:03:07.079Z,-5.75
2023-01-05T12:05:43.680Z,-6.14
2023-01-05T12:08:33.542Z,-6.22
2023-01-05T12:11:21.529Z,-6.30
2023-01-05T12:14:02.943Z,-6.58
2023-01-05T12:16:42.713Z,-6.56
2023-01-05T12:19:36.137Z,-6.33
2023-01-05T12:22:30.609Z,-5.24
2023-01-05T12:25:30.896Z,-5.68
2023-01-05T12:28:41.559Z,-5.50
2023-01-05T12:34:35.511Z,-6.05
2023-01-05T12:37:34.476Z,-6.39
2023-01-05T12:40:33.127Z,-6.20
2023-01-05T12:43:33.762Z,-6.26
2023-01-05T12:46:10.243Z,-5.64
2023-01-05T12:48:48.544Z,-6.21
2023-01-05T12:51:27.183Z,-6.11
2023-01-05T12:54:10.721Z,-6.02
2023-01-05T12:57:05.835Z,-6.22
2023-01-05T12:59:50.272Z,-5.76
2023-01-05T13:02:30.235Z,-5.53
2023-01-05T13:05:07.224Z,-5.96
2023-01-05T13:07:49.160Z,-5.82
2023-01-05T13:10:33.213Z,-6.70
2023-01-05T13:13:06.871Z,-6.77
2023-01-05T13:15:46.403Z,-7.03
2023-01-05T13:18:22.532Z,-6.65
2023-01-05T13:21:12.775Z,-7.04
2023-01-05T13:24:04.551Z,-5.61
2023-01-05T13:26:38.367Z,-6.07
2023-01-05T13:29:09.187Z,-4.81
2023-01-05T13:32:07.447Z,-6.04
2023-01-05T13:35:06.347Z,-6.92
2023-01-05T13:38:11.299Z,-7.27
2023-01-05T13:40:47.586Z,-6.02
2023-01-05T13:43:18.619Z,-7.36
2023-01-05T13:46:28.820Z,-7.59
2023-01-05T13:49:06.607Z,-7.28
2023-01-05T13:51:41.072Z,-7.79
2023-01-05T13:54:43.837Z,-6.09
2023-01-05T13:57:27.287Z,-7.81
2023-01-05T14:00:07.291Z,-7.38
2023-01-05T14:02:50.697Z,-7.89
2023-01-05T14:05:57.012Z,-7.22
2023-01-05T14:08:30.819Z,-7.03
2023-01-05T14:11:17.400Z,-7.83
2023-01-05T14:13:58.785Z,-8.43
2023-01-05T14:16:38.241Z,-8.66
2023-01-05T14:19:30.927Z,-7.21
2023-01-05T14:22:06.138Z,-8.06
2023-01-05T14:24:41.121Z,-6.92
2023-01-05T14:27:15.277Z,-8.86
2023-01-05T14:29:48.081Z,-8.94
2023-01-05T14:32:27.363Z,-9.01
2023-01-05T14:35:10.992Z,-8.76
2023-01-05T14:37:55.029Z,-9.52
2023-01-05T14:40:41.983Z,-8.19
2023-01-05T14:43:37.129Z,-9.29
2023-01-05T14:46:11.635Z,-8.35
2023-01-05T14:49:00.448Z,-9.01
2023-01-05T14:51:35.088Z,-9.92
2023-01-05T14:54:07.476Z,-9.39
2023-01-05T14:56:38.021Z,-7.96
2023-01-05T14:59:27.959Z,-9.04
2023-01-05T15:01:59.914Z,-9.05
2023-01-05T15:04:41.489Z,-6.11
2023-01-05T15:11:06.387Z,-9.36
2023-01-05T15:14:15.759Z,-10.53
2023-01-05T15:17:08.829Z,-10.36
2023-01-05T15:19:51.681Z,-9.29
2023-01-05T15:22:48.408Z,-10.00
2023-01-05T15:29:08.211Z,-10.18
2023-01-05T15:31:54.763Z,-10.50
2023-01-05T15:34:46.606Z,-10.48
2023-01-05T15:37:24.605Z,-10.41
2023-01-05T15:39:56.539Z,-10.77
2023-01-05T15:42:34.978Z,-10.67
2023-01-05T15:45:08.068Z,-10.34
2023-01-05T15:47:40.581Z,-9.96
2023-01-05T15:50:23.254Z,-9.57
2023-01-05T15:53:00.796Z,-10.17
2023-01-05T15:55:35.379Z,-10.21
2023-01-05T15:58:06.997Z,-11.21
2023-01-05T16:00:42.289Z,-10.71
2023-01-05T16:03:32.140Z,-10.07
2023-01-05T16:06:28.792Z,-10.56
2023-01-05T16:09:15.036Z,-11.44
2023-01-05T16:11:51.930Z,-7.76
2023-01-05T16:14:45.055Z,-9.68
2023-01-05T16:17:20.945Z,-7.14
2023-01-05T16:19:57.953Z,-8.95
2023-01-05T16:22:46.945Z,-9.60
2023-01-05T16:25:22.894Z,-6.91
2023-01-05T16:28:04.457Z,-9.64
2023-01-05T16:30:37.320Z,-8.38
2023-01-05T16:33:30.824Z,-8.99
2023-01-05T16:36:25.215Z,-8.87
2023-01-05T16:39:17.609Z,-8.65
2023-01-05T16:42:10.601Z,-7.53
2023-01-05T16:44:45.539Z,-8.66
2023-01-05T16:47:39.934Z,-11.08
2023-01-05T16:50:25.558Z,-10.74
2023-01-05T16:53:25.430Z,-9.18
2023-01-05T16:56:34.953Z,-8.43
2023-01-05T16:59:40.175Z,-10.67
2023-01-05T17:06:00.715Z,-10.72
2023-01-05T17:08:42.675Z,-8.93
2023-01-05T17:14:07.860Z,-10.68
2023-01-05T17:19:33.125Z,-7.28
2023-01-05T17:22:22.768Z,-10.88
2023-01-05T17:27:35.878Z,-8.08
2023-01-05T17:30:23.721Z,-10.05
2023-01-05T17:32:59.004Z,-10.71
2023-01-05T17:35:31.419Z,-7.83
2023-01-05T17:38:07.279Z,-9.17
2023-01-05T17:40:40.258Z,-9.68
2023-01-05T17:43:12.810Z,-6.62
2023-01-05T17:48:34.238Z,-10.40
2023-01-05T17:51:05.105Z,-9.58
2023-01-05T17:56:24.480Z,-9.91
2023-01-05T18:01:51.843Z,-10.57
2023-01-05T18:04:24.770Z,-10.76
2023-01-05T18:06:55.356Z,-11.58
2023-01-05T18:09:29.822Z,-11.52
2023-01-05T18:11:58.535Z,-11.77
2023-01-05T18:14:32.986Z,-11.81
2023-01-05T18:17:05.842Z,-12.43
2023-01-05T18:19:36.405Z,-12.85
2023-01-05T18:22:08.625Z,-9.54
2023-01-05T18:24:43.054Z,-12.13
2023-01-05T18:27:12.134Z,-12.77
2023-01-05T18:29:44.241Z,-12.81
2023-01-05T18:32:16.626Z,-12.93
2023-01-05T18:34:48.786Z,-12.68
2023-01-05T18:37:21.928Z,-13.64
2023-01-05T18:39:57.100Z,-11.56
2023-01-05T18:42:30.687Z,-10.77
2023-01-05T18:45:08.944Z,-13.75
2023-01-05T18:47:51.891Z,-13.92
2023-01-05T18:50:27.643Z,-12.92
2023-01-05T18:52:56.822Z,-13.58
2023-01-05T18:55:32.631Z,-7.59
2023-01-05T18:58:07.008Z,-7.56
2023-01-05T19:00:42.846Z,-12.87
2023-01-05T19:03:17.579Z,-12.10
2023-01-05T19:05:50.077Z,-10.51
2023-01-05T19:08:20.338Z,-12.49
2023-01-05T19:10:50.316Z,-12.52
2023-01-05T19:13:19.851Z,-11.15
2023-01-05T19:15:53.446Z,-10.39
2023-01-05T19:18:24.204Z,-13.58
2023-01-05T19:21:02.181Z,-14.55
2023-01-05T19:23:31.788Z,-14.61
2023-01-05T19:26:04.464Z,-15.24
2023-01-05T19:28:36.115Z,-15.04
2023-01-05T19:31:17.703Z,-14.95
2023-01-05T19:33:49.936Z,-13.96
2023-01-05T19:36:28.311Z,-14.12
2023-01-05T19:39:02.561Z,-15.65
2023-01-05T19:41:37.638Z,-14.53
2023-01-05T19:44:07.501Z,-14.07
2023-01-05T19:46:40.730Z,-13.24
2023-01-05T19:49:34.387Z,-13.68
2023-01-05T19:52:07.730Z,-15.41
2023-01-05T19:54:37.302Z,-14.23
2023-01-05T19:57:10.620Z,-13.06
2023-01-05T19:59:41.534Z,-14.95
2023-01-05T20:02:12.713Z,-13.76
2023-01-05T20:04:44.285Z,-13.03
2023-01-05T20:07:16.355Z,-12.72
2023-01-05T20:09:45.467Z,-13.00
2023-01-05T20:12:15.965Z,-13.59
2023-01-05T20:14:47.773Z,-11.00
2023-01-05T20:17:17.526Z,-14.82
2023-01-05T20:19:46.665Z,-12.86
2023-01-05T20:22:15.891Z,-14.52
2023-01-05T20:24:45.085Z,-14.40
2023-01-05T20:27:17.029Z,-15.62
2023-01-05T20:29:45.838Z,-14.10
2023-01-05T20:32:21.472Z,-14.27
2023-01-05T20:34:57.706Z,-12.23
2023-01-05T20:37:30.444Z,-13.00
2023-01-05T20:40:03.021Z,-15.87
2023-01-05T20:42:32.992Z,-14.28
2023-01-05T20:45:04.825Z,-14.73
2023-01-05T20:47:43.216Z,-13.68
2023-01-05T20:50:17.481Z,-15.98
2023-01-05T20:52:50.567Z,-10.65
2023-01-05T20:55:19.657Z,-14.67
2023-01-05T20:57:48.027Z,-16.73
2023-01-05T21:00:17.564Z,-14.82
2023-01-05T21:02:47.763Z,-14.91
2023-01-05T21:05:19.293Z,-17.14
2023-01-05T21:07:47.871Z,-14.13
2023-01-05T21:10:16.388Z,-17.04
2023-01-05T21:12:47.659Z,-17.13
2023-01-05T21:15:15.846Z,-16.61
2023-01-05T21:17:46.161Z,-14.19
2023-01-05T21:20:14.195Z,-16.07
2023-01-05T21:22:42.890Z,-16.24
2023-01-05T21:25:15.153Z,-17.04
2023-01-05T21:27:44.480Z,-15.28
2023-01-05T21:30:21.537Z,-16.08
2023-01-05T21:32:51.008Z,-15.67
2023-01-05T21:35:19.309Z,-17.79
2023-01-05T21:37:47.716Z,-12.40
2023-01-05T21:40:15.876Z,-16.96
2023-01-05T21:42:45.589Z,-17.81
2023-01-05T21:45:13.976Z,-16.95
2023-01-05T21:47:41.825Z,-17.31
2023-01-05T21:50:10.824Z,-17.68
2023-01-05T21:52:57.143Z,-16.41
2023-01-05T21:55:47.133Z,-18.12
2023-01-05T21:58:14.982Z,-16.98
2023-01-05T22:00:46.603Z,-18.57
2023-01-05T22:03:14.896Z,-16.45
2023-01-05T22:05:42.680Z,-17.03
2023-01-05T22:08:12.848Z,-17.36
2023-01-05T22:10:41.883Z,-17.83
2023-01-05T22:13:09.727Z,-16.51
2023-01-05T22:15:37.905Z,-18.48
2023-01-05T22:18:06.452Z,-12.15
2023-01-05T22:20:34.330Z,-17.81
2023-01-05T22:23:04.350Z,-18.00
2023-01-05T22:25:35.904Z,-16.71
2023-01-05T22:28:04.884Z,-18.69
2023-01-05T22:30:45.562Z,-18.41
2023-01-05T22:33:15.851Z,-17.94
2023-01-05T22:35:44.091Z,-18.98
2023-01-05T22:38:14.291Z,-18.73
2023-01-05T22:40:42.140Z,-19.11
2023-01-05T22:43:10.526Z,-18.72
2023-01-05T22:45:41.691Z,-18.86
2023-01-05T22:48:21.846Z,-18.22
2023-01-05T22:50:54.223Z,-13.42
2023-01-05T22:53:22.059Z,-17.79
2023-01-05T22:55:52.560Z,-17.27
2023-01-05T22:58:20.452Z,-19.53
2023-01-05T23:00:51.635Z,-18.11
2023-01-05T23:03:23.261Z,-19.89
2023-01-05T23:05:53.498Z,-20.05
2023-01-05T23:08:21.720Z,-19.36
2023-01-05T23:10:49.565Z,-19.79
2023-01-05T23:13:17.369Z,-19.70
2023-01-05T23:15:45.513Z,-20.33
2023-01-05T23:18:13.191Z,-19.67
2023-01-05T23:20:40.965Z,-20.21
2023-01-05T23:23:09.182Z,-20.62
2023-01-05T23:25:38.051Z,-19.64
2023-01-05T23:28:05.984Z,-19.69
2023-01-05T23:30:34.352Z,-19.76
2023-01-05T23:33:02.227Z,-20.43
2023-01-05T23:35:35.986Z,-18.34
2023-01-05T23:38:04.373Z,-17.91
2023-01-05T23:40:32.352Z,-17.54
2023-01-05T23:43:00.303Z,-18.28
2023-01-05T23:45:30.789Z,-16.42
2023-01-05T23:48:00.501Z,-19.43
2023-01-05T23:50:28.997Z,-19.49
2023-01-05T23:53:04.062Z,-19.49
2023-01-05T23:55:32.248Z,-19.38
2023-01-05T23:58:02.588Z,-15.29
